Aviation Digital Data Service (ADDS)

Output produced by METARs form (1705 UTC 24 April 2017)
found at http://www.aviationweather.gov/adds/metars/
 
FEFF 241600Z 35004KT CAVOK 25/22 Q1007 NOSIG
TAF FEFF 241100Z 2412/2518 20006KT 8000 RA BKN010 FEW033CB 
     BECMG 2416/2418 VRB03KT 8000 NSW SCT008 
     TEMPO 2504/2506 3000 BR BKN004
       
FEFT 241200Z 24016KT 9999 BKN017 OVC300 28/25 Q1013